Latest Weather Observations for Warragul (Nilma North)

IDV60801

Issued at 3:05 pm EST Wednesday 30 July 2014 (issued every 30 minutes, with the page automatically refreshed every 10 minutes)

About weather observations | Map of weather stations | Latest weather observations for VIC | Other Formats
Station Details ID: 085313 Name: NILMA NORTH (WARRAGUL) Lat: -38.13 Lon: 145.99 Height: 134.11 m
Data from the previous 72 hours. | See also: Recent months for locations in Victoria
Date/Time
EST
Temp
°C
App
Temp
°C
Dew
Point
Rel
Hum
%
Delta-T
°C
Wind Press
QNH
hPa
Press
MSL
hPa
Rain
since 9 am
mm
Dir
 
Spd
km/h
Gust
km/h
Spd
kts
Gust
kts
30/03:00pm 16.6 11.0 10.2 66 3.4 NW 30 54 16 29 1008.3 1008.5 0.0
30/02:30pm 16.9 11.7 10.3 65 3.5 NW 28 50 15 27 1008.4 - 0.0
30/02:00pm 17.1 11.2 10.5 65 3.5 WNW 32 56 17 30 1008.4 1008.6 0.0
30/01:30pm 16.0 10.8 10.1 68 3.1 NW 28 48 15 26 1008.9 - 0.0
30/01:00pm 16.6 11.5 10.7 68 3.2 NW 28 48 15 26 1009.2 1009.4 0.0
30/12:31pm 16.3 11.1 10.4 68 3.1 WNW 28 48 15 26 1009.8 - 0.0
30/12:30pm 16.3 11.5 10.4 68 3.1 WNW 26 48 14 26 1009.9 - 0.0
30/12:18pm 16.0 10.7 9.9 67 3.2 NW 28 50 15 27 1010.1 - 0.0
30/12:00pm 15.3 10.9 10.5 73 2.5 WNW 24 43 13 23 1010.5 1010.7 0.0
30/11:30am 15.5 9.6 10.5 72 2.7 WNW 32 52 17 28 1011.2 - 0.0
30/11:13am 15.2 10.0 10.4 73 2.5 WNW 28 56 15 30 1011.5 - 0.0
30/11:00am 15.0 10.1 9.8 71 2.7 WNW 26 41 14 22 1011.4 1011.7 0.0
30/10:45am 14.8 9.4 9.6 71 2.7 WNW 28 46 15 25 1011.6 - 0.0
30/10:30am 15.2 10.7 10.0 71 2.7 WNW 24 39 13 21 1011.5 - 0.0
30/10:22am 14.6 9.1 9.2 70 2.8 WNW 28 48 15 26 1011.5 - 0.0
30/10:00am 14.4 10.2 9.6 73 2.5 WNW 22 41 12 22 1011.5 1011.8 0.0
30/09:30am 14.1 10.2 9.5 74 2.4 WNW 20 37 11 20 1011.2 - 0.0
30/09:00am 13.4 10.5 9.6 78 2.0 WNW 15 26 8 14 1011.1 1011.4 5.8
30/08:30am 12.2 10.5 9.9 86 1.2 WNW 9 17 5 9 1011.3 - 5.8
30/08:00am 10.8 8.9 9.1 89 0.9 NW 9 15 5 8 1011.1 1011.4 5.8
30/07:30am 10.6 8.7 9.2 91 0.7 WNW 9 15 5 8 1011.3 - 5.8
30/07:00am 10.1 8.9 9.5 96 0.3 NW 6 11 3 6 1011.2 1011.5 5.8
30/06:30am 10.5 8.0 9.7 95 0.4 WNW 13 20 7 11 1010.9 - 5.8
30/06:02am 10.6 3.9 9.5 93 0.6 W 35 56 19 30 1011.0 - 5.8
30/06:00am 10.7 4.0 9.6 93 0.6 W 35 54 19 29 1011.0 1011.3 5.8
30/05:30am 11.7 5.9 10.8 94 0.5 W 32 50 17 27 1010.5 - 4.6
30/05:28am 11.7 6.7 10.8 94 0.5 W 28 50 15 27 1010.4 - 4.4
30/05:00am 12.2 7.8 10.4 89 0.9 WNW 24 41 13 22 1010.0 1010.2 3.4
30/04:30am 12.8 8.8 10.5 86 1.2 WNW 22 37 12 20 1009.7 - 3.4
30/04:00am 13.1 8.8 10.6 85 1.3 WNW 24 35 13 19 1009.7 1009.9 3.4
30/03:30am 12.5 9.3 11.1 91 0.7 WNW 19 35 10 19 1009.7 - 3.4
30/03:00am 11.9 9.0 11.1 95 0.4 W 17 22 9 12 1009.9 1010.1 3.0
30/02:30am 12.1 8.8 10.8 92 0.7 WNW 19 30 10 16 1009.6 - 2.6
30/02:00am 12.5 8.3 11.1 91 0.7 WNW 24 32 13 17 1009.9 1010.1 2.4
30/01:30am 12.2 6.9 11.1 93 0.6 WNW 30 50 16 27 1009.8 - 2.4
30/01:24am 12.4 7.4 11.1 92 0.7 WNW 28 50 15 27 1009.6 - 2.4
30/01:00am 12.3 7.8 11.4 94 0.5 W 26 35 14 19 1009.7 1009.9 2.2
30/12:30am 12.5 7.9 11.2 92 0.7 WNW 26 44 14 24 1009.3 - 1.0
30/12:16am 13.4 8.4 10.8 84 1.4 WNW 28 50 15 27 1009.1 - 0.4
30/12:00am 13.3 7.3 10.7 84 1.4 NW 33 48 18 26 1008.6 1008.8 0.4
 
Date/Time
EST
Temp
°C
App
Temp
°C
Dew
Point
Rel
Hum
%
Delta-T
°C
Wind Press
QNH
hPa
Press
MSL
hPa
Rain
since 9 am
mm
Dir
 
Spd
km/h
Gust
km/h
Spd
kts
Gust
kts
29/11:30pm 13.7 7.8 10.3 80 1.8 NW 32 54 17 29 1008.4 - 0.4
29/11:22pm 13.7 8.2 10.5 81 1.7 NW 30 48 16 26 1008.4 - 0.4
29/11:00pm 13.4 8.4 10.9 85 1.3 NW 28 43 15 23 1008.6 1008.8 0.2
29/10:39pm 13.4 8.4 10.9 85 1.3 WNW 28 46 15 25 1008.6 - 0.2
29/10:30pm 13.3 9.1 11.0 86 1.2 WNW 24 37 13 20 1008.8 - 0.2
29/10:00pm 13.3 9.1 11.0 86 1.2 WNW 24 39 13 21 1008.7 1008.9 0.2
29/09:35pm 13.7 8.7 10.9 83 1.5 WNW 28 48 15 26 1008.3 - 0.2
29/09:30pm 13.7 9.4 10.7 82 1.6 WNW 24 41 13 22 1008.4 - 0.2
29/09:00pm 14.8 9.1 9.8 72 2.6 WNW 30 54 16 29 1008.0 1008.2 0.0
29/08:30pm 14.8 8.7 9.8 72 2.6 NW 32 57 17 31 1007.8 - 0.0
29/08:00pm 14.7 7.3 9.9 73 2.5 NW 39 61 21 33 1007.8 1008.0 0.0
29/07:30pm 15.0 7.9 9.6 70 2.8 NW 37 69 20 37 1007.7 - 0.0
29/07:22pm 15.2 9.0 9.3 68 3.1 NW 32 69 17 37 1007.5 - 0.0
29/07:05pm 15.0 9.2 9.6 70 2.8 NW 30 50 16 27 1007.4 - 0.0
29/07:00pm 14.9 9.1 9.5 70 2.8 NW 30 48 16 26 1007.4 1007.6 0.0
29/06:30pm 14.8 8.0 9.2 69 2.9 NW 35 61 19 33 1007.0 - 0.0
29/06:01pm 14.5 8.7 9.3 71 2.7 NW 30 48 16 26 1006.8 - 0.0
29/06:00pm 14.6 8.4 9.4 71 2.7 NW 32 48 17 26 1006.9 1007.1 0.0
29/05:41pm 14.6 9.1 9.2 70 2.8 NW 28 56 15 30 1006.6 - 0.0
29/05:30pm 14.0 9.1 8.6 70 2.7 NW 24 50 13 27 1006.7 - 0.0
29/05:09pm 14.3 8.6 8.3 67 3.0 NNW 28 46 15 25 1005.8 - 0.0
29/05:00pm 14.2 8.9 8.4 68 2.9 NNW 26 50 14 27 1005.8 1006.0 0.0
29/04:30pm 14.3 8.1 8.0 66 3.2 NNW 30 48 16 26 1006.0 - 0.0
29/04:20pm 14.3 8.5 8.0 66 3.2 NNW 28 46 15 25 1005.9 - 0.0
29/04:00pm 14.0 7.5 8.0 67 3.0 NNW 32 48 17 26 1006.1 1006.3 0.0
29/03:30pm 14.7 8.0 8.0 64 3.4 NW 33 57 18 31 1006.2 - 0.0
29/03:03pm 14.5 8.7 7.8 64 3.3 NW 28 54 15 29 1006.2 - 0.0
29/03:00pm 14.5 9.1 8.0 65 3.3 NW 26 43 14 23 1006.3 1006.5 0.0
29/02:30pm 14.5 9.1 7.8 64 3.3 NW 26 46 14 25 1006.1 - 0.0
29/02:24pm 14.5 8.7 8.0 65 3.3 NNW 28 46 15 25 1006.1 - 0.0
29/02:00pm 14.3 8.5 8.0 66 3.2 NW 28 44 15 24 1005.9 1006.1 0.0
29/01:30pm 14.3 8.5 8.0 66 3.2 NW 28 48 15 26 1006.2 - 0.0
29/01:23pm 14.2 8.4 7.9 66 3.1 NW 28 48 15 26 1006.3 - 0.0
29/01:00pm 14.1 8.7 7.9 66 3.1 NW 26 46 14 25 1006.4 1006.6 0.0
29/12:45pm 14.2 8.4 7.9 66 3.1 NW 28 48 15 26 1006.6 - 0.0
29/12:30pm 13.7 9.0 7.9 68 2.9 NNW 22 41 12 22 1007.3 - 0.0
29/12:00pm 14.4 9.7 7.7 64 3.3 NW 22 43 12 23 1007.7 1007.9 0.0
29/11:30am 14.3 9.5 7.4 63 3.4 NW 22 37 12 20 1008.1 - 0.0
29/11:00am 14.2 6.9 7.0 62 3.5 NW 35 59 19 32 1007.9 1008.1 0.0
29/10:43am 14.3 7.9 6.9 61 3.6 NW 30 57 16 31 1007.7 - 0.0
29/10:30am 14.2 7.8 6.8 61 3.6 NW 30 46 16 25 1007.7 - 0.0
29/10:00am 14.3 7.5 6.9 61 3.6 NW 32 50 17 27 1008.2 1008.4 0.0
29/09:30am 13.8 7.4 7.1 64 3.3 NW 30 52 16 28 1008.5 - 0.0
29/09:14am 13.5 7.5 7.1 65 3.1 NW 28 48 15 26 1008.7 - 0.0
29/09:00am 13.5 7.9 7.1 65 3.1 NW 26 43 14 23 1008.6 1008.8 0.0
29/08:39am 13.4 7.3 6.7 64 3.2 NW 28 52 15 28 1008.8 - 0.0
29/08:30am 13.4 7.7 6.7 64 3.2 NW 26 43 14 23 1008.9 - 0.0
29/08:00am 13.2 7.9 6.8 65 3.1 NNW 24 37 13 20 1009.0 1009.2 0.0
29/07:30am 13.2 7.5 6.5 64 3.2 NW 26 43 14 23 1009.0 - 0.0
29/07:00am 13.2 9.2 6.8 65 3.1 NW 17 28 9 15 1009.3 1009.5 0.0
29/06:30am 13.3 8.4 6.9 65 3.1 NW 22 43 12 23 1009.0 - 0.0
29/06:00am 13.4 7.3 6.7 64 3.3 NW 28 44 15 24 1008.7 1008.9 0.0
29/05:30am 13.2 7.8 6.3 63 3.3 NNW 24 41 13 22 1008.5 - 0.0
29/05:00am 13.2 8.5 5.9 61 3.5 NW 20 37 11 20 1009.1 1009.3 0.0
29/04:30am 12.8 9.0 5.9 63 3.3 NW 15 24 8 13 1009.0 - 0.0
29/04:00am 12.8 9.0 5.7 62 3.4 NW 15 26 8 14 1009.1 1009.3 0.0
29/03:30am 12.7 9.7 5.8 63 3.3 NW 11 28 6 15 1009.0 - 0.0
29/03:00am 12.6 7.9 6.0 64 3.1 NW 20 35 11 19 1009.3 1009.5 0.0
29/02:30am 12.3 7.3 6.4 67 2.8 NW 22 33 12 18 1009.8 - 0.0
29/02:00am 12.1 7.5 6.4 68 2.7 NW 20 33 11 18 1010.2 1010.4 0.0
29/01:30am 11.4 7.6 5.7 68 2.7 NW 15 22 8 12 1010.6 - 0.0
29/01:00am 10.8 7.2 4.9 67 2.7 NW 13 19 7 10 1011.0 1011.3 0.0
29/12:30am 11.6 8.1 5.3 65 2.9 NW 13 17 7 9 1011.4 - 0.0
29/12:00am 12.0 8.5 5.4 64 3.1 NW 13 22 7 12 1011.7 1012.0 0.0
 
Date/Time
EST
Temp
°C
App
Temp
°C
Dew
Point
Rel
Hum
%
Delta-T
°C
Wind Press
QNH
hPa
Press
MSL
hPa
Rain
since 9 am
mm
Dir
 
Spd
km/h
Gust
km/h
Spd
kts
Gust
kts
28/11:30pm 12.4 8.2 5.8 64 3.1 NNW 17 28 9 15 1011.8 - 0.0
28/11:00pm 12.3 8.1 5.7 64 3.1 NW 17 28 9 15 1011.9 1012.2 0.0
28/10:30pm 12.5 8.3 5.9 64 3.1 NW 17 28 9 15 1012.1 - 0.0
28/10:00pm 12.8 8.3 5.9 63 3.3 NW 19 30 10 16 1011.9 1012.2 0.0
28/09:30pm 12.8 8.2 5.7 62 3.4 NW 19 33 10 18 1011.9 - 0.0
28/09:00pm 11.0 8.8 5.1 67 2.7 WNW 6 9 3 5 1012.3 1012.6 0.0
28/08:30pm 10.8 8.9 4.9 67 2.7 W 4 6 2 3 1012.2 - 0.0
28/08:00pm 10.7 8.2 5.0 68 2.6 WNW 7 11 4 6 1011.9 1012.2 0.0
28/07:30pm 11.8 8.2 5.2 64 3.1 NW 13 19 7 10 1011.7 - 0.0
28/07:00pm 11.3 8.2 5.4 67 2.7 NW 11 17 6 9 1011.6 1011.9 0.0
28/06:30pm 12.9 9.4 5.6 61 3.4 NW 13 22 7 12 1011.6 - 0.0
28/06:00pm 13.8 10.4 5.7 58 3.9 NW 13 22 7 12 1011.5 1011.8 0.0
28/05:30pm 14.3 10.1 5.9 57 4.0 WNW 17 30 9 16 1011.6 - 0.0
28/05:00pm 15.2 10.7 6.2 55 4.4 WNW 19 30 10 16 1011.8 1012.1 0.0
28/04:30pm 16.2 13.0 6.9 54 4.6 WNW 13 26 7 14 1011.3 - 0.0
28/04:00pm 17.0 12.5 6.2 49 5.3 NW 19 28 10 15 1011.0 1011.3 0.0
28/03:30pm 17.6 12.9 6.2 47 5.6 NW 20 35 11 19 1010.9 - 0.0
28/03:00pm 18.0 13.7 6.8 48 5.6 WNW 19 30 10 16 1011.2 1011.5 0.0
28/02:30pm 18.0 12.6 6.2 46 5.8 NW 24 46 13 25 1011.2 - 0.0
28/02:00pm 17.7 12.0 6.6 48 5.5 NW 26 39 14 21 1011.4 1011.7 0.0
28/01:44pm 17.6 11.5 6.5 48 5.5 NW 28 52 15 28 1011.4 - 0.0
28/01:30pm 17.7 12.4 6.6 48 5.5 NW 24 41 13 22 1011.6 - 0.0
28/01:00pm 16.9 11.7 7.3 53 4.8 NNW 24 35 13 19 1012.2 1012.5 0.0
28/12:30pm 17.0 11.8 7.1 52 5.0 NW 24 39 13 21 1012.6 - 0.0
28/12:00pm 16.7 12.3 7.4 54 4.7 NW 20 32 11 17 1013.3 1013.6 0.0
28/11:30am 16.4 11.9 6.8 53 4.8 NNW 20 35 11 19 1013.8 - 0.0
28/11:00am 16.1 11.7 6.5 53 4.7 NNW 19 32 10 17 1014.1 1014.3 0.0
28/10:30am 15.6 10.9 6.1 53 4.6 NNW 20 33 11 18 1014.5 - 0.0
28/10:00am 15.0 10.9 6.3 56 4.2 NW 17 30 9 16 1014.6 1014.8 0.0
28/09:30am 12.7 10.5 6.3 65 3.1 SW 7 11 4 6 1014.8 - 0.0
28/09:00am 13.6 9.4 5.7 59 3.8 NW 17 26 9 14 1014.7 1014.9 0.0
28/08:30am 12.3 9.9 5.2 62 3.3 NW 7 15 4 8 1014.9 - 0.0
28/08:00am 11.8 8.9 4.8 62 3.2 NW 9 15 5 8 1015.2 1015.4 0.0
28/07:30am 11.7 8.0 4.7 62 3.2 NNW 13 24 7 13 1015.3 - 0.0
28/07:00am 11.3 7.3 5.0 65 2.9 NNW 15 24 8 13 1015.5 1015.7 0.0
28/06:30am 11.3 7.7 5.2 66 2.8 NNW 13 20 7 11 1015.5 - 0.0
28/06:00am 8.4 6.4 4.4 76 1.8 WNW 4 6 2 3 1015.6 1015.8 0.0
28/05:30am 8.3 7.1 4.7 78 1.6 CALM 0 0 0 0 1015.8 - 0.0
28/05:00am 9.4 7.5 5.0 74 2.0 SSW 4 4 2 2 1015.8 1016.0 0.0
28/04:30am 10.9 8.1 5.2 68 2.6 NW 9 17 5 9 1015.7 - 0.0
28/04:00am 11.7 7.8 5.3 65 3.0 NNW 15 26 8 14 1015.8 1016.0 0.0
28/03:30am 11.8 7.5 5.4 65 3.0 NNW 17 26 9 14 1016.1 - 0.0
28/03:00am 12.1 6.9 5.5 64 3.1 NNW 22 35 12 19 1016.3 1016.5 0.0
28/02:30am 11.9 7.7 5.5 65 3.0 NNW 17 30 9 16 1016.5 - 0.0
28/02:00am 10.1 7.9 5.3 72 2.2 NNW 6 11 3 6 1017.1 1017.3 0.0
28/01:30am 9.5 7.3 5.3 75 1.9 NW 6 9 3 5 1017.3 - 0.0
28/01:00am 9.2 6.4 5.0 75 1.9 NW 9 13 5 7 1017.5 1017.8 0.0
28/12:30am 9.3 6.9 5.3 76 1.8 NW 7 11 4 6 1017.8 - 0.0
28/12:00am 9.6 7.5 5.6 76 1.8 NW 6 9 3 5 1018.2 1018.5 0.0
 
Date/Time
EST
Temp
°C
App
Temp
°C
Dew
Point
Rel
Hum
%
Delta-T
°C
Wind Press
QNH
hPa
Press
MSL
hPa
Rain
since 9 am
mm
Dir
 
Spd
km/h
Gust
km/h
Spd
kts
Gust
kts
27/11:30pm 9.2 7.4 5.4 77 1.7 NW 4 7 2 4 1018.5 - 0.0
27/11:00pm 9.8 7.5 5.8 76 1.8 NW 7 11 4 6 1018.9 1019.2 0.0
27/10:30pm 11.0 8.4 6.2 72 2.3 NNW 9 17 5 9 1019.3 - 0.0
27/10:00pm 9.6 7.3 5.8 77 1.7 NW 7 15 4 8 1019.6 1019.9 0.0
27/09:30pm 9.3 7.5 5.3 76 1.8 NNW 4 7 2 4 1019.9 - 0.0
27/09:00pm 9.4 7.2 5.4 76 1.8 NNW 6 7 3 4 1020.0 1020.3 0.0
27/08:30pm 7.9 6.0 4.7 80 1.4 N 4 6 2 3 1020.0 - 0.0
27/08:00pm 9.4 8.4 5.4 76 1.8 CALM 0 0 0 0 1020.0 1020.3 0.0
27/07:30pm 9.6 7.8 5.4 75 1.9 SW 4 7 2 4 1020.1 - 0.0
27/07:00pm 10.6 9.2 5.4 70 2.4 NNW 2 4 1 2 1019.7 1020.0 0.0
27/06:30pm 11.3 9.0 5.6 68 2.7 NW 7 13 4 7 1020.0 - 0.0
27/06:00pm 12.0 9.1 6.3 68 2.7 NNW 11 19 6 10 1020.2 1020.5 0.0
27/05:30pm 12.0 8.8 6.7 70 2.5 NW 13 20 7 11 1020.3 - 0.0
27/05:00pm 12.3 9.2 7.4 72 2.4 WNW 13 20 7 11 1020.2 1020.5 0.0
27/04:30pm 13.1 10.2 8.0 71 2.5 WNW 13 19 7 10 1020.5 - 0.0
27/04:00pm 13.0 10.4 7.9 71 2.5 W 11 19 6 10 1020.2 1020.5 0.0
27/03:30pm 13.4 10.8 7.6 68 2.9 WNW 11 17 6 9 1020.1 - 0.0

Other Formats:

Comma delimited format used in spreadsheet applications
http://www.bom.gov.au/fwo/IDV60801/IDV60801.99806.axf

JavaScript Object Notation format (JSON) in row-major order
http://www.bom.gov.au/fwo/IDV60801/IDV60801.99806.json